Green Center, Indiana
Current Conditions -  °F | °C
As of 2:35 AM on Sunday 23 Nov 2014 (Local Time) from KGWB Reporting Station
Drizzle Drizzle  
Wind Chill: 43°   Ceiling: 8000
Heat Index: 46°   Visibility: 10mi
Dew Point: 41°   Wind: 7mph
Humidity: 81%   Direction: 210°SSW
Pressure: 29.97"   Gusts: NA
Location:  41.3469°N, 85.4059°W
Report Text: KGWB 230735Z AUTO 21006KT 10SM DZ SCT028 SCT036 OVC080 08/05 A2997 RMK AO2 P0001
Loading
Personal Weather Stations






























Interactive Weather Map New forecast layout! Learn more

10-Day Weather Forecast

Advertisements
Track Severe Weather on mobile